sensor_id;sensor_type;location;lat;lon;timestamp;temperature;humidity
39881;DHT22;25554;44.954;10.068;2023-11-19T00:00:07;5.40;99.90
39881;DHT22;25554;44.954;10.068;2023-11-19T00:02:41;5.50;99.90
39881;DHT22;25554;44.954;10.068;2023-11-19T00:05:08;5.40;99.90
39881;DHT22;25554;44.954;10.068;2023-11-19T00:07:35;5.30;99.90
39881;DHT22;25554;44.954;10.068;2023-11-19T00:10:03;5.40;99.90
39881;DHT22;25554;44.954;10.068;2023-11-19T00:12:41;5.40;99.90
39881;DHT22;25554;44.954;10.068;2023-11-19T00:15:08;5.40;99.90
39881;DHT22;25554;44.954;10.068;2023-11-19T00:17:38;5.30;99.90
39881;DHT22;25554;44.954;10.068;2023-11-19T00:20:07;5.30;99.90
39881;DHT22;25554;44.954;10.068;2023-11-19T00:22:34;5.20;99.90
39881;DHT22;25554;44.954;10.068;2023-11-19T00:25:00;5.30;99.90
39881;DHT22;25554;44.954;10.068;2023-11-19T00:27:26;5.80;99.90
39881;DHT22;25554;44.954;10.068;2023-11-19T00:29:52;5.30;99.90
39881;DHT22;25554;44.954;10.068;2023-11-19T00:32:19;5.30;99.90
39881;DHT22;25554;44.954;10.068;2023-11-19T00:34:45;5.20;99.90
39881;DHT22;25554;44.954;10.068;2023-11-19T00:37:11;5.20;99.90
39881;DHT22;25554;44.954;10.068;2023-11-19T00:39:38;5.20;99.90
39881;DHT22;25554;44.954;10.068;2023-11-19T00:42:04;5.10;99.90
39881;DHT22;25554;44.954;10.068;2023-11-19T00:44:31;5.10;99.90
39881;DHT22;25554;44.954;10.068;2023-11-19T00:46:57;5.00;99.90
39881;DHT22;25554;44.954;10.068;2023-11-19T00:49:26;4.90;99.90
39881;DHT22;25554;44.954;10.068;2023-11-19T00:51:52;4.90;99.90
39881;DHT22;25554;44.954;10.068;2023-11-19T00:54:18;4.90;99.90
39881;DHT22;25554;44.954;10.068;2023-11-19T00:56:45;5.00;99.90
39881;DHT22;25554;44.954;10.068;2023-11-19T00:59:11;5.00;99.90
39881;DHT22;25554;44.954;10.068;2023-11-19T01:01:38;4.90;99.90
39881;DHT22;25554;44.954;10.068;2023-11-19T01:04:04;4.90;99.90
39881;DHT22;25554;44.954;10.068;2023-11-19T01:06:31;5.00;99.90
39881;DHT22;25554;44.954;10.068;2023-11-19T01:08:57;4.90;99.90
39881;DHT22;25554;44.954;10.068;2023-11-19T01:11:25;5.00;99.90
39881;DHT22;25554;44.954;10.068;2023-11-19T01:13:52;4.90;99.90
39881;DHT22;25554;44.954;10.068;2023-11-19T01:16:19;4.90;99.90
39881;DHT22;25554;44.954;10.068;2023-11-19T01:18:49;4.90;99.90
39881;DHT22;25554;44.954;10.068;2023-11-19T01:21:15;4.90;99.90
39881;DHT22;25554;44.954;10.068;2023-11-19T01:23:42;4.80;99.90
39881;DHT22;25554;44.954;10.068;2023-11-19T01:26:10;4.80;99.90
39881;DHT22;25554;44.954;10.068;2023-11-19T01:28:37;4.80;99.90
39881;DHT22;25554;44.954;10.068;2023-11-19T01:31:06;4.80;99.90
39881;DHT22;25554;44.954;10.068;2023-11-19T01:33:36;4.80;99.90
39881;DHT22;25554;44.954;10.068;2023-11-19T01:36:03;4.80;99.90
39881;DHT22;25554;44.954;10.068;2023-11-19T01:38:30;4.70;99.90
39881;DHT22;25554;44.954;10.068;2023-11-19T01:40:59;4.70;99.90
39881;DHT22;25554;44.954;10.068;2023-11-19T01:43:33;4.70;99.90
39881;DHT22;25554;44.954;10.068;2023-11-19T01:46:01;4.70;99.90
39881;DHT22;25554;44.954;10.068;2023-11-19T01:48:28;4.70;99.90
39881;DHT22;25554;44.954;10.068;2023-11-19T01:50:54;4.70;99.90
39881;DHT22;25554;44.954;10.068;2023-11-19T01:53:27;4.80;99.90
39881;DHT22;25554;44.954;10.068;2023-11-19T01:55:53;4.60;99.90
39881;DHT22;25554;44.954;10.068;2023-11-19T01:58:20;4.60;99.90
39881;DHT22;25554;44.954;10.068;2023-11-19T02:00:47;4.60;99.90
39881;DHT22;25554;44.954;10.068;2023-11-19T02:03:14;4.70;99.90
39881;DHT22;25554;44.954;10.068;2023-11-19T02:05:41;4.70;99.90
39881;DHT22;25554;44.954;10.068;2023-11-19T02:08:07;4.70;99.90
39881;DHT22;25554;44.954;10.068;2023-11-19T02:10:34;4.60;99.90
39881;DHT22;25554;44.954;10.068;2023-11-19T02:13:01;4.60;99.90
39881;DHT22;25554;44.954;10.068;2023-11-19T02:15:27;4.60;99.90
39881;DHT22;25554;44.954;10.068;2023-11-19T02:17:54;4.60;99.90
39881;DHT22;25554;44.954;10.068;2023-11-19T02:20:20;4.50;99.90
39881;DHT22;25554;44.954;10.068;2023-11-19T02:22:46;4.60;99.90
39881;DHT22;25554;44.954;10.068;2023-11-19T02:25:28;4.60;99.90
39881;DHT22;25554;44.954;10.068;2023-11-19T02:27:58;4.60;99.90
39881;DHT22;25554;44.954;10.068;2023-11-19T02:30:26;4.60;99.90
39881;DHT22;25554;44.954;10.068;2023-11-19T02:32:53;4.50;99.90
39881;DHT22;25554;44.954;10.068;2023-11-19T02:35:20;4.50;99.90
39881;DHT22;25554;44.954;10.068;2023-11-19T02:37:48;4.50;99.90
39881;DHT22;25554;44.954;10.068;2023-11-19T02:40:14;4.50;99.90
39881;DHT22;25554;44.954;10.068;2023-11-19T02:42:40;4.40;99.90
39881;DHT22;25554;44.954;10.068;2023-11-19T02:45:08;4.40;99.90
39881;DHT22;25554;44.954;10.068;2023-11-19T02:47:41;4.40;99.90
39881;DHT22;25554;44.954;10.068;2023-11-19T02:50:12;4.30;99.90
39881;DHT22;25554;44.954;10.068;2023-11-19T02:52:43;4.30;99.90
39881;DHT22;25554;44.954;10.068;2023-11-19T02:55:12;4.30;99.90
39881;DHT22;25554;44.954;10.068;2023-11-19T02:57:39;4.30;99.90
39881;DHT22;25554;44.954;10.068;2023-11-19T03:00:15;4.30;99.90
39881;DHT22;25554;44.954;10.068;2023-11-19T03:02:41;4.30;99.90
39881;DHT22;25554;44.954;10.068;2023-11-19T03:05:15;4.20;99.90
39881;DHT22;25554;44.954;10.068;2023-11-19T03:07:43;4.20;99.90
39881;DHT22;25554;44.954;10.068;2023-11-19T03:10:13;4.20;99.90
39881;DHT22;25554;44.954;10.068;2023-11-19T03:12:43;4.20;99.90
39881;DHT22;25554;44.954;10.068;2023-11-19T03:15:10;4.20;99.90
39881;DHT22;25554;44.954;10.068;2023-11-19T03:17:41;4.30;99.90
39881;DHT22;25554;44.954;10.068;2023-11-19T03:20:10;4.30;99.90
39881;DHT22;25554;44.954;10.068;2023-11-19T03:22:41;3.90;99.90
39881;DHT22;25554;44.954;10.068;2023-11-19T03:25:08;4.40;99.90
39881;DHT22;25554;44.954;10.068;2023-11-19T03:27:38;4.30;99.90
39881;DHT22;25554;44.954;10.068;2023-11-19T03:30:11;4.30;99.90
39881;DHT22;25554;44.954;10.068;2023-11-19T03:32:38;4.20;99.90
39881;DHT22;25554;44.954;10.068;2023-11-19T03:35:05;4.20;99.90
39881;DHT22;25554;44.954;10.068;2023-11-19T03:37:35;4.20;99.90
39881;DHT22;25554;44.954;10.068;2023-11-19T03:40:02;4.20;99.90
39881;DHT22;25554;44.954;10.068;2023-11-19T03:42:29;4.20;99.90
39881;DHT22;25554;44.954;10.068;2023-11-19T03:44:56;4.20;99.90
39881;DHT22;25554;44.954;10.068;2023-11-19T03:47:23;4.10;99.90
39881;DHT22;25554;44.954;10.068;2023-11-19T03:49:50;4.00;99.90
39881;DHT22;25554;44.954;10.068;2023-11-19T03:52:17;4.00;99.90
39881;DHT22;25554;44.954;10.068;2023-11-19T03:54:44;4.00;99.90
39881;DHT22;25554;44.954;10.068;2023-11-19T03:57:10;4.00;99.90
39881;DHT22;25554;44.954;10.068;2023-11-19T03:59:38;4.00;99.90
39881;DHT22;25554;44.954;10.068;2023-11-19T04:02:05;4.00;99.90
39881;DHT22;25554;44.954;10.068;2023-11-19T04:04:32;4.10;99.90
39881;DHT22;25554;44.954;10.068;2023-11-19T04:07:00;4.00;99.90
39881;DHT22;25554;44.954;10.068;2023-11-19T04:09:27;4.10;99.90
39881;DHT22;25554;44.954;10.068;2023-11-19T04:11:53;4.00;99.90
39881;DHT22;25554;44.954;10.068;2023-11-19T04:14:20;4.10;99.90
39881;DHT22;25554;44.954;10.068;2023-11-19T04:16:46;4.30;99.90
39881;DHT22;25554;44.954;10.068;2023-11-19T04:19:12;4.00;99.90
39881;DHT22;25554;44.954;10.068;2023-11-19T04:21:41;4.00;99.90
39881;DHT22;25554;44.954;10.068;2023-11-19T04:24:11;4.00;99.90
39881;DHT22;25554;44.954;10.068;2023-11-19T04:26:44;4.00;99.90
39881;DHT22;25554;44.954;10.068;2023-11-19T04:29:12;3.80;99.90
39881;DHT22;25554;44.954;10.068;2023-11-19T04:31:39;3.90;99.90
39881;DHT22;25554;44.954;10.068;2023-11-19T04:34:06;3.90;99.90
39881;DHT22;25554;44.954;10.068;2023-11-19T04:36:33;3.80;99.90
39881;DHT22;25554;44.954;10.068;2023-11-19T04:39:00;3.80;99.90
39881;DHT22;25554;44.954;10.068;2023-11-19T04:41:27;3.80;99.90
39881;DHT22;25554;44.954;10.068;2023-11-19T04:43:56;3.80;99.90
39881;DHT22;25554;44.954;10.068;2023-11-19T04:46:23;3.80;99.90
39881;DHT22;25554;44.954;10.068;2023-11-19T04:48:50;3.70;99.90
39881;DHT22;25554;44.954;10.068;2023-11-19T04:51:16;3.80;99.90
39881;DHT22;25554;44.954;10.068;2023-11-19T04:53:43;4.00;99.90
39881;DHT22;25554;44.954;10.068;2023-11-19T04:56:11;3.80;99.90
39881;DHT22;25554;44.954;10.068;2023-11-19T04:58:37;3.80;99.90
39881;DHT22;25554;44.954;10.068;2023-11-19T05:01:04;3.80;99.90
39881;DHT22;25554;44.954;10.068;2023-11-19T05:03:31;3.80;99.90
39881;DHT22;25554;44.954;10.068;2023-11-19T05:05:58;3.90;99.90
39881;DHT22;25554;44.954;10.068;2023-11-19T05:08:25;3.90;99.90
39881;DHT22;25554;44.954;10.068;2023-11-19T05:10:51;3.90;99.90
39881;DHT22;25554;44.954;10.068;2023-11-19T05:13:17;3.80;99.90
39881;DHT22;25554;44.954;10.068;2023-11-19T05:15:44;3.80;99.90
39881;DHT22;25554;44.954;10.068;2023-11-19T05:18:10;3.80;99.90
39881;DHT22;25554;44.954;10.068;2023-11-19T05:20:37;3.80;99.90
39881;DHT22;25554;44.954;10.068;2023-11-19T05:23:03;3.80;99.90
39881;DHT22;25554;44.954;10.068;2023-11-19T05:25:29;3.70;99.90
39881;DHT22;25554;44.954;10.068;2023-11-19T05:27:55;3.80;99.90
39881;DHT22;25554;44.954;10.068;2023-11-19T05:30:21;3.80;99.90
39881;DHT22;25554;44.954;10.068;2023-11-19T05:32:49;3.80;99.90
39881;DHT22;25554;44.954;10.068;2023-11-19T05:35:15;3.80;99.90
39881;DHT22;25554;44.954;10.068;2023-11-19T05:37:42;3.80;99.90
39881;DHT22;25554;44.954;10.068;2023-11-19T05:40:09;3.80;99.90
39881;DHT22;25554;44.954;10.068;2023-11-19T05:42:41;3.80;99.90
39881;DHT22;25554;44.954;10.068;2023-11-19T05:45:09;3.80;99.90
39881;DHT22;25554;44.954;10.068;2023-11-19T05:47:36;3.70;99.90
39881;DHT22;25554;44.954;10.068;2023-11-19T05:50:03;3.70;99.90
39881;DHT22;25554;44.954;10.068;2023-11-19T05:52:30;3.80;99.90
39881;DHT22;25554;44.954;10.068;2023-11-19T05:55:00;3.80;99.90
39881;DHT22;25554;44.954;10.068;2023-11-19T05:57:30;3.80;99.90
39881;DHT22;25554;44.954;10.068;2023-11-19T05:59:57;3.80;99.90
39881;DHT22;25554;44.954;10.068;2023-11-19T06:02:25;3.80;99.90
39881;DHT22;25554;44.954;10.068;2023-11-19T06:04:53;3.80;99.90
39881;DHT22;25554;44.954;10.068;2023-11-19T06:07:20;3.80;99.90
39881;DHT22;25554;44.954;10.068;2023-11-19T06:09:49;3.80;99.90
39881;DHT22;25554;44.954;10.068;2023-11-19T06:12:16;3.90;99.90
39881;DHT22;25554;44.954;10.068;2023-11-19T06:14:42;3.90;99.90
39881;DHT22;25554;44.954;10.068;2023-11-19T06:17:09;3.90;99.90
39881;DHT22;25554;44.954;10.068;2023-11-19T06:19:37;3.90;99.90
39881;DHT22;25554;44.954;10.068;2023-11-19T06:22:04;3.80;99.90
39881;DHT22;25554;44.954;10.068;2023-11-19T06:24:30;3.90;99.90
39881;DHT22;25554;44.954;10.068;2023-11-19T06:26:57;3.80;99.90
39881;DHT22;25554;44.954;10.068;2023-11-19T06:29:24;3.90;99.90
39881;DHT22;25554;44.954;10.068;2023-11-19T06:31:51;3.90;99.90
39881;DHT22;25554;44.954;10.068;2023-11-19T06:34:17;3.90;99.90
39881;DHT22;25554;44.954;10.068;2023-11-19T06:36:44;3.90;99.90
39881;DHT22;25554;44.954;10.068;2023-11-19T06:39:10;3.90;99.90
39881;DHT22;25554;44.954;10.068;2023-11-19T06:41:37;4.00;99.90
39881;DHT22;25554;44.954;10.068;2023-11-19T06:44:10;4.00;99.90
39881;DHT22;25554;44.954;10.068;2023-11-19T06:46:40;4.00;99.90
39881;DHT22;25554;44.954;10.068;2023-11-19T06:49:09;4.00;99.90
39881;DHT22;25554;44.954;10.068;2023-11-19T06:51:40;3.90;99.90
39881;DHT22;25554;44.954;10.068;2023-11-19T06:54:06;4.00;99.90
39881;DHT22;25554;44.954;10.068;2023-11-19T06:56:36;4.00;99.90
39881;DHT22;25554;44.954;10.068;2023-11-19T06:59:10;4.10;99.90
39881;DHT22;25554;44.954;10.068;2023-11-19T07:01:37;4.10;99.90
39881;DHT22;25554;44.954;10.068;2023-11-19T07:04:03;4.20;99.90
39881;DHT22;25554;44.954;10.068;2023-11-19T07:06:35;4.20;99.90
39881;DHT22;25554;44.954;10.068;2023-11-19T07:09:03;4.40;99.90
39881;DHT22;25554;44.954;10.068;2023-11-19T07:11:39;4.40;99.90
39881;DHT22;25554;44.954;10.068;2023-11-19T07:14:09;4.60;99.90
39881;DHT22;25554;44.954;10.068;2023-11-19T07:16:36;4.70;99.90
39881;DHT22;25554;44.954;10.068;2023-11-19T07:19:05;4.80;99.90
39881;DHT22;25554;44.954;10.068;2023-11-19T07:21:32;4.90;99.90
39881;DHT22;25554;44.954;10.068;2023-11-19T07:24:02;4.90;99.90
39881;DHT22;25554;44.954;10.068;2023-11-19T07:26:28;5.00;99.90
39881;DHT22;25554;44.954;10.068;2023-11-19T07:28:55;5.00;99.90
39881;DHT22;25554;44.954;10.068;2023-11-19T07:31:21;5.10;99.90
39881;DHT22;25554;44.954;10.068;2023-11-19T07:33:48;5.30;99.90
39881;DHT22;25554;44.954;10.068;2023-11-19T07:36:15;5.30;99.90
39881;DHT22;25554;44.954;10.068;2023-11-19T07:38:42;5.40;99.90
39881;DHT22;25554;44.954;10.068;2023-11-19T07:41:08;5.50;99.90
39881;DHT22;25554;44.954;10.068;2023-11-19T07:43:43;5.60;99.90
39881;DHT22;25554;44.954;10.068;2023-11-19T07:46:11;5.70;99.90
39881;DHT22;25554;44.954;10.068;2023-11-19T07:48:39;5.80;99.90
39881;DHT22;25554;44.954;10.068;2023-11-19T07:51:06;6.10;99.90
39881;DHT22;25554;44.954;10.068;2023-11-19T07:53:32;5.90;99.90
39881;DHT22;25554;44.954;10.068;2023-11-19T07:56:04;6.10;99.90
39881;DHT22;25554;44.954;10.068;2023-11-19T07:58:31;6.20;99.90
39881;DHT22;25554;44.954;10.068;2023-11-19T08:00:57;6.20;99.90
39881;DHT22;25554;44.954;10.068;2023-11-19T08:03:24;6.30;99.90
39881;DHT22;25554;44.954;10.068;2023-11-19T08:05:50;6.50;99.90
39881;DHT22;25554;44.954;10.068;2023-11-19T08:08:17;6.40;99.90
39881;DHT22;25554;44.954;10.068;2023-11-19T08:10:43;6.50;99.90
39881;DHT22;25554;44.954;10.068;2023-11-19T08:13:11;6.60;99.90
39881;DHT22;25554;44.954;10.068;2023-11-19T08:15:38;6.70;99.90
39881;DHT22;25554;44.954;10.068;2023-11-19T08:18:04;6.70;99.90
39881;DHT22;25554;44.954;10.068;2023-11-19T08:20:31;6.80;99.90
39881;DHT22;25554;44.954;10.068;2023-11-19T08:22:58;6.90;99.90
39881;DHT22;25554;44.954;10.068;2023-11-19T08:25:24;7.00;99.90
39881;DHT22;25554;44.954;10.068;2023-11-19T08:27:50;7.00;99.90
39881;DHT22;25554;44.954;10.068;2023-11-19T08:30:17;7.10;99.90
39881;DHT22;25554;44.954;10.068;2023-11-19T08:32:43;7.10;99.90
39881;DHT22;25554;44.954;10.068;2023-11-19T08:35:09;7.10;99.90
39881;DHT22;25554;44.954;10.068;2023-11-19T08:37:36;7.20;99.90
39881;DHT22;25554;44.954;10.068;2023-11-19T08:40:03;7.30;99.90
39881;DHT22;25554;44.954;10.068;2023-11-19T08:42:30;7.30;99.90
39881;DHT22;25554;44.954;10.068;2023-11-19T08:44:57;7.40;99.90
39881;DHT22;25554;44.954;10.068;2023-11-19T08:47:23;7.50;99.90
39881;DHT22;25554;44.954;10.068;2023-11-19T08:49:52;7.50;99.90
39881;DHT22;25554;44.954;10.068;2023-11-19T08:52:19;7.60;99.90
39881;DHT22;25554;44.954;10.068;2023-11-19T08:54:45;7.70;99.90
39881;DHT22;25554;44.954;10.068;2023-11-19T08:57:12;7.80;99.90
39881;DHT22;25554;44.954;10.068;2023-11-19T08:59:38;7.80;99.90
39881;DHT22;25554;44.954;10.068;2023-11-19T09:02:05;7.90;99.90
39881;DHT22;25554;44.954;10.068;2023-11-19T09:04:33;8.00;99.90
39881;DHT22;25554;44.954;10.068;2023-11-19T09:06:59;8.10;99.90
39881;DHT22;25554;44.954;10.068;2023-11-19T09:09:25;8.20;99.90
39881;DHT22;25554;44.954;10.068;2023-11-19T09:11:52;8.20;99.90
39881;DHT22;25554;44.954;10.068;2023-11-19T09:14:18;8.30;99.90
39881;DHT22;25554;44.954;10.068;2023-11-19T09:16:44;8.40;99.90
39881;DHT22;25554;44.954;10.068;2023-11-19T09:19:11;8.40;99.90
39881;DHT22;25554;44.954;10.068;2023-11-19T09:21:39;8.50;99.90
39881;DHT22;25554;44.954;10.068;2023-11-19T09:24:06;8.60;99.90
39881;DHT22;25554;44.954;10.068;2023-11-19T09:26:33;8.70;99.90
39881;DHT22;25554;44.954;10.068;2023-11-19T09:29:00;8.70;99.90
39881;DHT22;25554;44.954;10.068;2023-11-19T09:31:26;8.80;99.90
39881;DHT22;25554;44.954;10.068;2023-11-19T09:33:53;8.90;99.90
39881;DHT22;25554;44.954;10.068;2023-11-19T09:36:19;8.90;99.90
39881;DHT22;25554;44.954;10.068;2023-11-19T09:38:45;9.00;99.90
39881;DHT22;25554;44.954;10.068;2023-11-19T09:41:12;9.10;99.90
39881;DHT22;25554;44.954;10.068;2023-11-19T09:43:40;9.20;99.90
39881;DHT22;25554;44.954;10.068;2023-11-19T09:46:09;9.30;99.90
39881;DHT22;25554;44.954;10.068;2023-11-19T09:48:39;9.30;99.90
39881;DHT22;25554;44.954;10.068;2023-11-19T09:51:07;9.30;99.90
39881;DHT22;25554;44.954;10.068;2023-11-19T09:53:34;9.50;99.90
39881;DHT22;25554;44.954;10.068;2023-11-19T09:56:04;9.50;99.90
39881;DHT22;25554;44.954;10.068;2023-11-19T09:58:34;9.60;99.90
39881;DHT22;25554;44.954;10.068;2023-11-19T10:01:01;9.70;99.90
39881;DHT22;25554;44.954;10.068;2023-11-19T10:03:37;9.80;99.90
39881;DHT22;25554;44.954;10.068;2023-11-19T10:06:08;10.00;99.90
39881;DHT22;25554;44.954;10.068;2023-11-19T10:08:38;10.00;99.90
39881;DHT22;25554;44.954;10.068;2023-11-19T10:11:08;10.10;99.90
39881;DHT22;25554;44.954;10.068;2023-11-19T10:13:35;10.20;99.90
39881;DHT22;25554;44.954;10.068;2023-11-19T10:16:09;10.30;99.90
39881;DHT22;25554;44.954;10.068;2023-11-19T10:18:37;10.40;99.90
39881;DHT22;25554;44.954;10.068;2023-11-19T10:21:05;10.40;99.90
39881;DHT22;25554;44.954;10.068;2023-11-19T10:26:16;10.60;99.90
39881;DHT22;25554;44.954;10.068;2023-11-19T10:28:43;10.70;99.90
39881;DHT22;25554;44.954;10.068;2023-11-19T10:31:15;10.70;99.90
39881;DHT22;25554;44.954;10.068;2023-11-19T10:33:42;10.80;99.90
39881;DHT22;25554;44.954;10.068;2023-11-19T10:36:11;10.80;99.90
39881;DHT22;25554;44.954;10.068;2023-11-19T10:38:41;10.80;99.90
39881;DHT22;25554;44.954;10.068;2023-11-19T10:41:29;10.40;99.90
39881;DHT22;25554;44.954;10.068;2023-11-19T10:44:06;10.80;99.90
39881;DHT22;25554;44.954;10.068;2023-11-19T10:46:42;10.90;99.90
39881;DHT22;25554;44.954;10.068;2023-11-19T10:49:22;10.90;99.90
39881;DHT22;25554;44.954;10.068;2023-11-19T10:52:41;11.00;99.90
39881;DHT22;25554;44.954;10.068;2023-11-19T10:55:07;11.00;99.90
39881;DHT22;25554;44.954;10.068;2023-11-19T10:57:36;11.10;99.90
39881;DHT22;25554;44.954;10.068;2023-11-19T11:15:49;11.80;99.90
39881;DHT22;25554;44.954;10.068;2023-11-19T11:19:17;11.70;99.90
39881;DHT22;25554;44.954;10.068;2023-11-19T11:22:17;11.90;99.90
39881;DHT22;25554;44.954;10.068;2023-11-19T11:40:02;12.20;99.90
39881;DHT22;25554;44.954;10.068;2023-11-19T11:42:37;12.20;99.90
39881;DHT22;25554;44.954;10.068;2023-11-19T11:45:05;12.30;99.90
39881;DHT22;25554;44.954;10.068;2023-11-19T11:50:23;12.50;99.90
39881;DHT22;25554;44.954;10.068;2023-11-19T11:55:26;12.60;99.90
39881;DHT22;25554;44.954;10.068;2023-11-19T11:57:57;12.60;99.90
39881;DHT22;25554;44.954;10.068;2023-11-19T12:00:30;12.70;99.90
39881;DHT22;25554;44.954;10.068;2023-11-19T12:02:59;12.70;99.90
39881;DHT22;25554;44.954;10.068;2023-11-19T12:05:26;12.80;99.90
39881;DHT22;25554;44.954;10.068;2023-11-19T12:08:00;12.80;99.90
39881;DHT22;25554;44.954;10.068;2023-11-19T12:10:31;12.90;99.90
39881;DHT22;25554;44.954;10.068;2023-11-19T12:12:59;13.00;99.90
39881;DHT22;25554;44.954;10.068;2023-11-19T12:15:26;13.10;99.90
39881;DHT22;25554;44.954;10.068;2023-11-19T12:17:56;13.20;99.90
39881;DHT22;25554;44.954;10.068;2023-11-19T12:20:26;13.30;99.90
39881;DHT22;25554;44.954;10.068;2023-11-19T12:22:53;13.30;99.90
39881;DHT22;25554;44.954;10.068;2023-11-19T12:25:20;13.40;99.90
39881;DHT22;25554;44.954;10.068;2023-11-19T12:27:49;13.50;99.90
39881;DHT22;25554;44.954;10.068;2023-11-19T12:30:23;13.50;99.90
39881;DHT22;25554;44.954;10.068;2023-11-19T12:32:53;13.60;99.90
39881;DHT22;25554;44.954;10.068;2023-11-19T12:35:20;13.70;99.90
39881;DHT22;25554;44.954;10.068;2023-11-19T12:37:48;13.70;99.90
39881;DHT22;25554;44.954;10.068;2023-11-19T12:40:35;13.70;99.90
39881;DHT22;25554;44.954;10.068;2023-11-19T12:43:22;13.80;99.90
39881;DHT22;25554;44.954;10.068;2023-11-19T12:46:19;13.80;99.90
39881;DHT22;25554;44.954;10.068;2023-11-19T12:51:50;13.80;99.90
39881;DHT22;25554;44.954;10.068;2023-11-19T12:57:20;13.70;99.90
39881;DHT22;25554;44.954;10.068;2023-11-19T13:03:56;14.50;99.90
39881;DHT22;25554;44.954;10.068;2023-11-19T13:06:54;14.10;99.90
39881;DHT22;25554;44.954;10.068;2023-11-19T13:09:23;14.20;99.90
39881;DHT22;25554;44.954;10.068;2023-11-19T13:11:54;14.30;99.90
39881;DHT22;25554;44.954;10.068;2023-11-19T13:14:21;14.30;99.90
39881;DHT22;25554;44.954;10.068;2023-11-19T13:16:51;14.30;99.90
39881;DHT22;25554;44.954;10.068;2023-11-19T13:19:20;14.20;99.90
39881;DHT22;25554;44.954;10.068;2023-11-19T13:21:46;14.20;99.90
39881;DHT22;25554;44.954;10.068;2023-11-19T13:26:41;14.10;99.90
39881;DHT22;25554;44.954;10.068;2023-11-19T13:52:47;15.10;99.90
39881;DHT22;25554;44.954;10.068;2023-11-19T14:03:14;15.40;99.90
39881;DHT22;25554;44.954;10.068;2023-11-19T14:06:26;14.90;99.90
39881;DHT22;25554;44.954;10.068;2023-11-19T14:12:55;14.70;99.90
39881;DHT22;25554;44.954;10.068;2023-11-19T14:20:00;14.90;99.90
39881;DHT22;25554;44.954;10.068;2023-11-19T14:22:26;14.70;99.90
39881;DHT22;25554;44.954;10.068;2023-11-19T14:24:53;14.70;99.90
39881;DHT22;25554;44.954;10.068;2023-11-19T14:27:19;14.70;99.90
39881;DHT22;25554;44.954;10.068;2023-11-19T14:29:48;14.60;99.90
39881;DHT22;25554;44.954;10.068;2023-11-19T14:36:13;14.50;99.90
39881;DHT22;25554;44.954;10.068;2023-11-19T14:38:39;14.40;99.90
39881;DHT22;25554;44.954;10.068;2023-11-19T14:41:06;14.40;99.90
39881;DHT22;25554;44.954;10.068;2023-11-19T14:43:32;14.40;99.90
39881;DHT22;25554;44.954;10.068;2023-11-19T14:45:59;14.30;99.90
39881;DHT22;25554;44.954;10.068;2023-11-19T14:48:25;14.20;99.90
39881;DHT22;25554;44.954;10.068;2023-11-19T14:50:51;14.20;99.90
39881;DHT22;25554;44.954;10.068;2023-11-19T14:53:18;14.10;99.90
39881;DHT22;25554;44.954;10.068;2023-11-19T14:55:46;14.00;99.90
39881;DHT22;25554;44.954;10.068;2023-11-19T14:58:12;13.90;99.90
39881;DHT22;25554;44.954;10.068;2023-11-19T15:00:40;13.80;99.90
39881;DHT22;25554;44.954;10.068;2023-11-19T15:03:06;13.70;99.90
39881;DHT22;25554;44.954;10.068;2023-11-19T15:05:34;13.60;99.90
39881;DHT22;25554;44.954;10.068;2023-11-19T15:08:01;13.50;99.90
39881;DHT22;25554;44.954;10.068;2023-11-19T15:10:57;13.50;99.90
39881;DHT22;25554;44.954;10.068;2023-11-19T15:17:25;12.80;99.90
39881;DHT22;25554;44.954;10.068;2023-11-19T15:19:52;13.10;99.90
39881;DHT22;25554;44.954;10.068;2023-11-19T15:22:21;13.10;99.90
39881;DHT22;25554;44.954;10.068;2023-11-19T15:24:47;13.00;99.90
39881;DHT22;25554;44.954;10.068;2023-11-19T15:27:14;13.00;99.90
39881;DHT22;25554;44.954;10.068;2023-11-19T15:29:40;12.90;99.90
39881;DHT22;25554;44.954;10.068;2023-11-19T15:32:06;12.80;99.90
39881;DHT22;25554;44.954;10.068;2023-11-19T15:34:33;12.70;99.90
39881;DHT22;25554;44.954;10.068;2023-11-19T15:37:01;12.60;99.90
39881;DHT22;25554;44.954;10.068;2023-11-19T15:39:28;12.50;99.90
39881;DHT22;25554;44.954;10.068;2023-11-19T15:41:55;12.30;99.90
39881;DHT22;25554;44.954;10.068;2023-11-19T15:44:24;12.20;99.90
39881;DHT22;25554;44.954;10.068;2023-11-19T15:46:50;12.10;99.90
39881;DHT22;25554;44.954;10.068;2023-11-19T15:49:16;12.00;99.90
39881;DHT22;25554;44.954;10.068;2023-11-19T15:51:43;11.90;99.90
39881;DHT22;25554;44.954;10.068;2023-11-19T15:54:09;11.80;99.90
39881;DHT22;25554;44.954;10.068;2023-11-19T15:56:36;11.70;99.90
39881;DHT22;25554;44.954;10.068;2023-11-19T15:59:02;11.60;99.90
39881;DHT22;25554;44.954;10.068;2023-11-19T16:01:30;11.50;99.90
39881;DHT22;25554;44.954;10.068;2023-11-19T16:03:57;11.40;99.90
39881;DHT22;25554;44.954;10.068;2023-11-19T16:06:23;11.30;99.90
39881;DHT22;25554;44.954;10.068;2023-11-19T16:08:49;11.20;99.90
39881;DHT22;25554;44.954;10.068;2023-11-19T16:11:17;11.10;99.90
39881;DHT22;25554;44.954;10.068;2023-11-19T16:13:43;11.10;99.90
39881;DHT22;25554;44.954;10.068;2023-11-19T16:16:10;11.00;99.90
39881;DHT22;25554;44.954;10.068;2023-11-19T16:18:36;10.90;99.90
39881;DHT22;25554;44.954;10.068;2023-11-19T16:21:02;10.80;99.90
39881;DHT22;25554;44.954;10.068;2023-11-19T16:23:29;10.80;99.90
39881;DHT22;25554;44.954;10.068;2023-11-19T16:25:56;10.70;99.90
39881;DHT22;25554;44.954;10.068;2023-11-19T16:28:22;10.70;99.90
39881;DHT22;25554;44.954;10.068;2023-11-19T16:30:50;10.60;99.90
39881;DHT22;25554;44.954;10.068;2023-11-19T16:33:16;10.60;99.90
39881;DHT22;25554;44.954;10.068;2023-11-19T16:35:43;10.50;99.90
39881;DHT22;25554;44.954;10.068;2023-11-19T16:38:15;10.40;99.90
39881;DHT22;25554;44.954;10.068;2023-11-19T16:40:41;10.40;99.90
39881;DHT22;25554;44.954;10.068;2023-11-19T16:43:08;10.30;99.90
39881;DHT22;25554;44.954;10.068;2023-11-19T16:45:34;10.20;99.90
39881;DHT22;25554;44.954;10.068;2023-11-19T16:48:00;10.30;99.90
39881;DHT22;25554;44.954;10.068;2023-11-19T16:50:27;10.20;99.90
39881;DHT22;25554;44.954;10.068;2023-11-19T16:52:54;10.20;99.90
39881;DHT22;25554;44.954;10.068;2023-11-19T16:55:21;10.20;99.90
39881;DHT22;25554;44.954;10.068;2023-11-19T16:57:47;9.90;99.90
39881;DHT22;25554;44.954;10.068;2023-11-19T17:00:14;10.10;99.90
39881;DHT22;25554;44.954;10.068;2023-11-19T17:02:40;10.00;99.90
39881;DHT22;25554;44.954;10.068;2023-11-19T17:05:10;10.00;99.90
39881;DHT22;25554;44.954;10.068;2023-11-19T17:07:37;10.00;99.90
39881;DHT22;25554;44.954;10.068;2023-11-19T17:10:04;10.00;99.90
39881;DHT22;25554;44.954;10.068;2023-11-19T17:12:32;9.90;99.90